26 de setembro de 2022

Hora Código Clima Temp. Visibilidade Tecto Vento METAR/SPECI
23:50
I
10 °C 10 km+ 900 ft 200° 200° 8 kt METAR EDLW 262150Z AUTO 20008KT 9999 // BKN009/// BKN074/// 10/09 Q0995
23:20
I
10 °C 10 km+ 700 ft 200° 200° 9 kt METAR EDLW 262120Z AUTO 20009KT 9999 // BKN007/// BKN060/// 10/09 Q0995
22:50
V
10 °C 10 km+ 5.400 ft 190° 190° 9 kt METAR EDLW 262050Z AUTO 19009KT 9999 // SCT009/// BKN054/// BKN061/// 10/09 Q0995
22:20
M
10 °C 10 km+ 1.300 ft 190° 190° 11 kt METAR EDLW 262020Z AUTO 19011KT 9999 // BKN013/// OVC024/// 10/09 Q0995
21:50
M
10 °C 10 km+ 2.600 ft 190° 190° 12 kt METAR EDLW 261950Z 19012KT 9999 -RA FEW014 SCT022 OVC026 10/09 Q0996
21:20
M
10 °C 10 km+ 2.700 ft 190° 190° 12 kt METAR EDLW 261920Z 19012KT 9999 -RA BKN027 10/09 Q0996
20:50
V
10 °C 10 km+ 3.300 ft 190° 190° 13 kt METAR EDLW 261850Z 19013KT 9999 -RA BKN033 10/09 Q0996
20:20
V
11 °C 10 km+ 3.600 ft 190° 190° 12 kt METAR EDLW 261820Z 19012KT 9999 -RA OVC036 11/09 Q0996
19:50
V
11 °C 10 km+ 3.800 ft 190° 190° 12 kt METAR EDLW 261750Z 19012KT 9999 FEW017 BKN038 11/09 Q0996
19:20
V
11 °C 10 km+ 4.000 ft 190° 190° 15 kt METAR EDLW 261720Z 19015KT 9999 SCT020 OVC040 11/08 Q0997
18:50
V
11 °C 10 km+ 4.300 ft 190° 190° 14 kt METAR EDLW 261650Z 19014KT 9999 FEW020 SCT026 BKN043 11/08 Q0997
18:20
V
11 °C 10 km+ 3.600 ft 190° 190° 15 kt METAR EDLW 261620Z 19015KT 9999 FEW021 OVC036 11/09 Q0997
17:50
V
12 °C 10 km+ 4.500 ft 190° 190° 14 kt METAR EDLW 261550Z 19014KT 9999 -DZ FEW027 BKN045 12/09 Q0998
17:20
V
12 °C 10 km+ - 200° 200° 15 kt METAR EDLW 261520Z 20015KT 9999 -DZ FEW011 SCT035 12/09 Q0998
16:50
V
12 °C 10 km+ 3.600 ft 190° 190° 15 kt METAR EDLW 261450Z 19015KT 9999 FEW023 BKN036 12/08 Q0999
16:20
V
12 °C 10 km+ - 200° 200° 14 kt METAR EDLW 261420Z 20014KT 9999 FEW011 12/09 Q0999
15:50
M
12 °C 10 km+ 2.600 ft 200° 200° 14 kt METAR EDLW 261350Z 20014KT 9999 BKN026 12/08 Q0999
15:20
V
13 °C 10 km+ 4.900 ft 190° 190° 16 - 26 kt METAR EDLW 261320Z 19016G26KT 9999 FEW027 BKN049 13/08 Q0999
14:50
V
12 °C 10 km+ - 190° 190° 18 kt METAR EDLW 261250Z 19018KT 9999 FEW023 12/08 Q1000
14:20
V
13 °C 10 km+ - 190° 190° 17 - 27 kt METAR EDLW 261220Z 19017G27KT 9999 FEW023 13/08 Q1000
13:50
V
12 °C 10 km+ - 190° 190° 15 kt METAR EDLW 261150Z 19015KT 9999 -SHRA FEW012 12/08 Q1001
13:20
V
12 °C 10 km+ - 180° 180° 16 kt METAR EDLW 261120Z 18016KT 9999 FEW022 12/08 Q1001
12:50
V
11 °C 10 km+ 4.200 ft 190° 190° 14 kt METAR EDLW 261050Z 19014KT 9999 -RA SCT013 BKN042 11/09 Q1001
12:20
V
11 °C 10 km+ - 190° 190° 12 kt METAR EDLW 261020Z 19012KT 160V220 9999 -RA FEW010 SCT025 11/08 Q1002
11:50
V
11 °C 10 km+ 4.500 ft 200° 200° 15 kt METAR EDLW 260950Z 20015KT 9999 -DZ FEW010 SCT022 OVC045 11/08 Q1003
11:20
V
11 °C 10 km+ 4.700 ft 210° 210° 13 kt METAR EDLW 260920Z 21013KT 9999 -DZ SCT015 BKN047 11/08 Q1003
10:50
V
12 °C 10 km+ - 210° 210° 13 kt METAR EDLW 260850Z 21013KT 9999 -DZ FEW012 SCT031 12/07 Q1003
10:20
V
12 °C 10 km+ - 210° 210° 15 kt METAR EDLW 260820Z 21015KT CAVOK 12/07 Q1003
09:50
V
12 °C 10 km+ - 210° 210° 13 kt METAR EDLW 260750Z 21013KT CAVOK 12/07 Q1003
09:20
V
12 °C 10 km+ - 200° 200° 11 kt METAR EDLW 260720Z 20011KT 9999 FEW043 12/08 Q1004
08:50
V
11 °C 10 km+ - 190° 190° 11 kt METAR EDLW 260650Z 19011KT CAVOK 11/08 Q1004
08:20
V
10 °C 10 km+ - 200° 200° 9 kt METAR EDLW 260620Z 20009KT CAVOK 10/08 Q1005
07:50
V
10 °C 10 km+ - 200° 200° 10 kt METAR EDLW 260550Z 20010KT 9999 FEW034 10/08 Q1005
07:20
V
10 °C 10 km+ - 200° 200° 10 kt METAR EDLW 260520Z 20010KT CAVOK 10/08 Q1005
06:50
V
10 °C 10 km+ - 200° 200° 10 kt METAR EDLW 260450Z 20010KT CAVOK 10/08 Q1005
06:20
V
10 °C 10 km+ - 190° 190° 10 kt METAR EDLW 260420Z 19010KT 9999 FEW022 10/08 Q1006
05:50
V
10 °C 10 km+ - 200° 200° 8 kt METAR EDLW 260350Z 20008KT 9999 FEW026 10/07 Q1006
05:20
V
10 °C 10 km+ - 200° 200° 10 kt METAR EDLW 260320Z 20010KT 9999 FEW024 10/07 Q1007
04:50
V
10 °C 10 km+ 7.800 ft 200° 200° 11 kt METAR EDLW 260250Z AUTO 20011KT 9999 // OVC078/// 10/07 Q1007
04:20
V
10 °C 10 km+ 7.700 ft 190° 190° 10 kt METAR EDLW 260220Z AUTO 19010KT 9999 // OVC077/// 10/07 Q1008
03:50
V
9 °C 10 km+ 7.600 ft 200° 200° 10 kt METAR EDLW 260150Z AUTO 20010KT 9999 // BKN076/// 09/07 Q1008
03:20
V
9 °C 10 km+ 8.000 ft 190° 190° 10 kt METAR EDLW 260120Z AUTO 19010KT 9999 // BKN080/// 09/07 Q1009
02:50
V
9 °C 10 km+ 7.800 ft 190° 190° 9 kt METAR EDLW 260050Z AUTO 19009KT 9999 // FEW034/// SCT056/// BKN078/// 09/07 Q1009
02:20
V
9 °C 10 km+ 5.800 ft 200° 200° 8 kt METAR EDLW 260020Z AUTO 20008KT 9999 // SCT047/// BKN058/// OVC082/// 09/07 Q1010
01:50
V
10 °C 10 km+ 5.700 ft 180° 180° 9 kt METAR EDLW 252350Z AUTO 18009KT 9999 // FEW050/// BKN057/// BKN066/// 10/07 Q1010
01:20
V
9 °C 10 km+ 6.600 ft 190° 190° 8 kt METAR EDLW 252320Z AUTO 19008KT 9999 // BKN066/// 09/07 Q1010
00:50
V
9 °C 10 km+ - 170° 170° 6 kt METAR EDLW 252250Z AUTO 17006KT 9999 // NCD 09/07 Q1011
00:20
V
9 °C 10 km+ - 170° 170° 7 kt METAR EDLW 252220Z AUTO 17007KT 9999 // SCT062/// 09/07 Q1011

25 de setembro de 2022

Hora Código Clima Temp. Visibilidade Tecto Vento METAR/SPECI
23:50
V
8 °C 10 km+ - 200° 200° 5 kt METAR EDLW 252150Z AUTO 20005KT 9999 // FEW064/// 08/07 Q1011
23:20
V
9 °C 10 km+ 6.200 ft 210° 210° 6 kt METAR EDLW 252120Z AUTO 21006KT 9999 // BKN062/// 09/07 Q1011
22:50
V
9 °C 10 km+ - 180° 180° 4 kt METAR EDLW 252050Z 18004KT CAVOK 09/07 Q1012
22:20
V
9 °C 10 km+ - 220° 220° 5 kt METAR EDLW 252020Z 22005KT CAVOK 09/07 Q1012
21:50
V
10 °C 10 km+ - 220° 220° 5 kt METAR EDLW 251950Z 22005KT CAVOK 10/07 Q1012
21:20
V
9 °C 10 km+ - 230° 230° 4 kt METAR EDLW 251920Z 23004KT CAVOK 09/07 Q1012
20:50
V
12 °C 10 km+ - 240° 240° 4 kt METAR EDLW 251850Z 24004KT CAVOK 12/07 Q1012
20:20
V
12 °C 10 km+ - 240° 240° 3 kt METAR EDLW 251820Z 24003KT 9999 FEW039 12/07 Q1012
19:50
V
12 °C 10 km+ - Var Var 2 kt METAR EDLW 251750Z VRB02KT 9999 FEW039 12/07 Q1012
19:20
V
12 °C 10 km+ - Var Var 2 kt METAR EDLW 251720Z VRB02KT CAVOK 12/07 Q1012
18:50
V
14 °C 10 km+ - Var Var 4 kt METAR EDLW 251650Z VRB04KT CAVOK 14/06 Q1012
18:20
V
15 °C 10 km+ - 310° 310° 4 kt METAR EDLW 251620Z 31004KT 250V360 CAVOK 15/07 Q1012
17:50
V
16 °C 10 km+ - Var Var 4 kt METAR EDLW 251550Z VRB04KT CAVOK 16/06 Q1012
17:20
V
15 °C 10 km+ - 320° 320° 4 kt METAR EDLW 251520Z 32004KT 250V030 CAVOK 15/06 Q1012
16:50
V
15 °C 10 km+ - 320° 320° 3 kt METAR EDLW 251450Z 32003KT 260V050 CAVOK 15/08 Q1013
16:20
V
15 °C 10 km+ - 300° 300° 5 kt METAR EDLW 251420Z 30005KT 240V010 9999 SCT046 15/06 Q1013
15:50
V
16 °C 10 km+ - 330° 330° 4 kt METAR EDLW 251350Z 33004KT 250V060 9999 SCT046 16/06 Q1013
15:20
V
16 °C 10 km+ - 280° 280° 5 kt METAR EDLW 251320Z 28005KT 210V360 9999 FEW047 16/06 Q1013
14:50
V
15 °C 10 km+ - Var Var 5 kt METAR EDLW 251250Z VRB05KT 9999 FEW041 15/05 Q1013
14:20
V
16 °C 10 km+ - 320° 320° 5 kt METAR EDLW 251220Z 32005KT 250V040 9999 FEW039 16/07 Q1014
13:50
V
15 °C 10 km+ - Var Var 5 kt METAR EDLW 251150Z VRB05KT 9999 FEW036 15/07 Q1014
13:20
V
16 °C 10 km+ - Var Var 6 kt METAR EDLW 251120Z VRB06KT 9999 FEW033 16/08 Q1014
12:50
V
15 °C 10 km+ - Var Var 4 kt METAR EDLW 251050Z VRB04KT 9999 SCT027 15/09 Q1014
12:20
V
14 °C 10 km+ - Var Var 3 kt METAR EDLW 251020Z VRB03KT 9999 FEW022 SCT026 14/08 Q1014
11:50
M
14 °C 10 km+ 2.500 ft 360° 360° 3 kt METAR EDLW 250950Z 36003KT 260V050 9999 SCT018 BKN025 14/09 Q1014
11:20
M
13 °C 10 km+ 2.600 ft 320° 320° 4 kt METAR EDLW 250920Z 32004KT 250V030 9999 SCT017 SCT021 BKN026 13/09 Q1014
10:50
M
13 °C 10 km+ 2.100 ft Var Var 3 kt METAR EDLW 250850Z VRB03KT 9999 FEW014 BKN021 13/10 Q1014
10:20
M
12 °C 10 km+ 2.600 ft Var Var 3 kt METAR EDLW 250820Z VRB03KT 9999 FEW011 SCT023 BKN026 12/09 Q1014
09:50
V
11 °C 10 km+ - 300° 300° 3 kt METAR EDLW 250750Z 30003KT 230V020 9999 FEW022 11/09 Q1014
09:20
V
11 °C 10 km+ - 240° 240° 2 kt METAR EDLW 250720Z 24002KT 9999 FEW021 11/09 Q1014
08:50
V
10 °C 10 km+ - Var Var 2 kt METAR EDLW 250650Z VRB02KT CAVOK 10/09 Q1014
08:20
V
9 °C 10 km+ - Var 000° 0 kt METAR EDLW 250620Z 00000KT CAVOK 09/08 Q1014
07:50
V
10 °C 10 km+ - Var 000° 0 kt METAR EDLW 250550Z 00000KT CAVOK 10/09 Q1014
07:20
V
10 °C 10 km+ - Var Var 1 kt METAR EDLW 250520Z VRB01KT 9999 FEW035 10/09 Q1014
06:50
V
11 °C 10 km+ - Var Var 2 kt METAR EDLW 250450Z VRB02KT 9999 FEW033 11/09 Q1014
06:20
V
11 °C 10 km+ 3.200 ft Var Var 2 kt METAR EDLW 250420Z VRB02KT 9999 FEW010 SCT023 OVC032 11/10 Q1014
05:50
M
12 °C 10 km+ 2.200 ft 320° 320° 3 kt METAR EDLW 250350Z 32003KT 270V040 9999 BKN022 OVC029 12/10 Q1014
05:20
M
12 °C 10 km+ 2.100 ft 330° 330° 3 kt METAR EDLW 250320Z AUTO 33003KT 250V060 9999 // OVC021/// 12/10 Q1014
04:50
M
12 °C 10 km+ 2.000 ft Var Var 3 kt METAR EDLW 250250Z AUTO VRB03KT 9999 // FEW008/// BKN020/// OVC025/// 12/11 Q1014
04:20
I
12 °C 10 km+ 700 ft Var Var 4 kt METAR EDLW 250220Z AUTO VRB04KT 9999 // BKN007/// BKN009/// OVC017/// 12/11 Q1014
03:50
I
12 °C 10 km+ 900 ft Var Var 2 kt METAR EDLW 250150Z AUTO VRB02KT 9999 // BKN009/// BKN011/// OVC016/// 12/11 Q1014
03:20
V
12 °C 10 km+ 3.500 ft Var Var 2 kt METAR EDLW 250120Z AUTO VRB02KT 9999 // SCT010/// OVC035/// 12/11 Q1014
02:50
V
12 °C 10 km+ 3.300 ft 010° 010° 3 kt METAR EDLW 250050Z AUTO 01003KT 330V040 9999 // SCT019/// OVC033/// 12/11 Q1014
02:20
I
12 °C 8 km 600 ft 360° 360° 3 kt METAR EDLW 250020Z AUTO 36003KT 320V070 8000 // BKN006/// OVC012/// 12/11 Q1014
01:50
I
12 °C 8 km 800 ft 360° 360° 3 kt METAR EDLW 242350Z AUTO 36003KT 300V040 8000 // BKN008/// OVC012/// 12/11 Q1014
01:20
M
12 °C 9 km 1.200 ft Var Var 2 kt METAR EDLW 242320Z AUTO VRB02KT 9000 // BKN012/// BKN022/// OVC025/// 12/11 Q1014
00:50
M
12 °C 9 km 1.400 ft 360° 360° 3 kt METAR EDLW 242250Z AUTO 36003KT 290V030 9000 // FEW007/// OVC014/// 12/11 Q1014
00:20
M
12 °C 10 km+ 2.000 ft Var Var 2 kt METAR EDLW 242220Z AUTO VRB02KT 9999 // SCT009/// BKN020/// OVC078/// 12/11 Q1014

24 de setembro de 2022

Hora Código Clima Temp. Visibilidade Tecto Vento METAR/SPECI
23:50
M
12 °C 10 km+ 1.600 ft Var 000° 0 kt METAR EDLW 242150Z AUTO 00000KT 9999 // OVC016/// 12/11 Q1014
23:20
M
13 °C 6 km 4.500 ft Var 000° 0 kt METAR EDLW 242120Z AUTO 00000KT 6000 // SCT016/// BKN045/// OVC078/// 13/12 Q1014
22:50
M
12 °C 7 km - Var 000° 0 kt METAR EDLW 242050Z 00000KT 7000 FEW024 SCT043 12/12 Q1014
22:20
V
13 °C 8 km - Var 000° 0 kt METAR EDLW 242020Z 00000KT 8000 FEW024 13/12 Q1014
21:50
M
13 °C 7 km 2.100 ft Var 000° 0 kt METAR EDLW 241950Z 00000KT 7000 OVC021 13/12 Q1014
21:20
M
13 °C 7 km 2.500 ft Var 000° 0 kt METAR EDLW 241920Z 00000KT 7000 FEW012 BKN025 13/12 Q1014
20:50
M
13 °C 10 km+ 1.600 ft Var 000° 0 kt METAR EDLW 241850Z 00000KT 9999 BKN016 13/12 Q1013
20:20
V
14 °C 10 km+ - Var 000° 0 kt METAR EDLW 241820Z 00000KT 9999 SCT016 14/12 Q1013
19:50
V
14 °C 10 km+ - Var 000° 0 kt METAR EDLW 241750Z 00000KT 9999 FEW017 14/12 Q1013
19:20
V
14 °C 10 km+ - 100° 100° 3 kt METAR EDLW 241720Z 10003KT 9999 FEW014 14/12 Q1013
18:50
V
14 °C 10 km+ - 040° 040° 4 kt METAR EDLW 241650Z 04004KT 9999 FEW013 14/12 Q1013
18:20
V
15 °C 10 km+ - 050° 050° 2 kt METAR EDLW 241620Z 05002KT 9999 FEW014 SCT029 15/12 Q1013
17:50
V
15 °C 10 km+ - Var Var 2 kt METAR EDLW 241550Z VRB02KT 9999 FEW015 15/12 Q1013
17:20
V
15 °C 10 km+ - Var Var 2 kt METAR EDLW 241520Z VRB02KT 9999 FEW017 15/12 Q1013
16:50
V
15 °C 10 km+ - 010° 010° 3 kt METAR EDLW 241450Z 01003KT 320V060 9999 FEW039 15/12 Q1013
Dados mais antigos

Nós e terceiros acompanhamos seu comportamento na internet em nosso site com cookies. Se você continuar, nós assumimos que você concorda com nossa política de cookies. Saiba mais